Time;durP1;ratioP1;P1;durP2;ratioP2;P2;SDS_P1;SDS_P2;PMS_P1;PMS_P2;Temp;Humidity;BMP_temperature;BMP_pressure;BME280_temperature;BME280_humidity;BME280_pressure;Samples;Min_cycle;Max_cycle;Signal;HPM_P1;HPM_P2
2021/05/07 02:50:47;;;;;;;4.13;2.50;;;;;;;13.75;100.00;99877.16;1720931;80;23591;-72
2021/05/07 02:53:17;;;;;;;4.10;2.40;;;;;;;13.85;100.00;99886.63;1775708;78;21083;-67
2021/05/07 02:55:46;;;;;;;4.30;2.63;;;;;;;13.91;100.00;99906.47;1786455;78;21130;-67
2021/05/07 02:58:14;;;;;;;4.40;2.73;;;;;;;13.89;100.00;99904.03;1784644;79;21024;-67
2021/05/07 03:00:43;;;;;;;3.37;2.30;;;;;;;13.87;100.00;99905.57;1792992;78;21084;-72
2021/05/07 03:03:11;;;;;;;4.70;2.50;;;;;;;13.82;100.00;99915.07;1785058;80;21096;-67
2021/05/07 03:05:40;;;;;;;5.57;2.63;;;;;;;13.72;100.00;99926.03;1780073;78;21054;-68
2021/05/07 03:08:08;;;;;;;4.87;3.00;;;;;;;13.63;100.00;99931.20;1742902;81;21203;-67
2021/05/07 03:10:37;;;;;;;4.20;2.93;;;;;;;13.54;100.00;99933.80;1748790;81;21881;-68
2021/05/07 03:13:05;;;;;;;6.47;3.23;;;;;;;13.45;100.00;99937.66;1727372;81;21773;-71
2021/05/07 03:15:35;;;;;;;5.40;3.00;;;;;;;13.36;100.00;99947.57;1724332;82;21744;-71
2021/05/07 03:18:05;;;;;;;5.63;3.43;;;;;;;13.28;100.00;99959.59;1721864;83;21544;-71
2021/05/07 03:20:33;;;;;;;8.40;3.07;;;;;;;13.21;100.00;99962.20;1732425;81;21530;-69
2021/05/07 03:23:03;;;;;;;4.87;3.20;;;;;;;13.09;100.00;99975.12;1709115;81;21969;-70
2021/05/07 03:25:33;;;;;;;5.30;2.93;;;;;;;13.09;100.00;99975.12;1753123;80;21663;-70
2021/05/07 03:28:02;;;;;;;5.27;3.00;;;;;;;13.00;100.00;99971.14;1735562;81;21817;-71
2021/05/07 03:30:34;;;;;;;6.00;3.70;;;;;;;13.00;100.00;99971.14;1786310;78;22247;-70
2021/05/07 03:33:03;;;;;;;;;;;;;;;12.99;100.00;99977.87;1785269;78;22804;-70
2021/05/07 03:35:32;;;;;;;4.87;3.30;;;;;;;12.97;100.00;99982.01;1785660;78;20233;-70
2021/05/07 03:38:00;;;;;;;4.63;3.23;;;;;;;12.93;100.00;99986.55;1787542;78;21377;-68
2021/05/07 03:40:29;;;;;;;3.30;2.50;;;;;;;12.89;100.00;99994.80;1788949;78;21438;-71
2021/05/07 03:42:57;;;;;;;5.70;3.20;;;;;;;12.83;100.00;99992.99;1773741;78;21500;-70
2021/05/07 03:45:25;;;;;;;5.07;2.93;;;;;;;12.83;100.00;99992.99;1729917;81;21623;-68
2021/05/07 03:47:56;;;;;;;4.57;2.30;;;;;;;12.81;100.00;99997.64;1711974;81;21811;-68
2021/05/07 03:50:24;;;;;;;5.40;3.13;;;;;;;12.76;100.00;100014.43;1769459;79;21471;-68
2021/05/07 03:52:52;;;;;;;5.53;3.00;;;;;;;12.76;100.00;100014.43;1748874;80;21429;-69
2021/05/07 03:55:21;;;;;;;5.03;2.97;;;;;;;12.75;100.00;100016.75;1756690;80;21475;-68
2021/05/07 03:57:50;;;;;;;4.60;3.20;;;;;;;12.73;100.00;100019.26;1745442;80;22064;-69
2021/05/07 04:00:22;;;;;;;3.77;2.70;;;;;;;12.66;100.00;100027.13;1748450;80;21463;-67
2021/05/07 04:02:49;;;;;;;4.40;3.10;;;;;;;12.66;100.00;100027.13;1752627;80;21578;-66
2021/05/07 04:05:18;;;;;;;5.67;3.53;;;;;;;12.61;100.00;100025.60;1741882;81;21108;-69
2021/05/07 04:07:52;;;;;;;7.63;3.30;;;;;;;12.51;100.00;100027.84;1742713;80;21633;-72
2021/05/07 04:10:20;;;;;;;5.37;3.58;;;;;;;12.51;100.00;100027.84;1781169;78;21639;-69
2021/05/07 04:15:16;;;;;;;4.80;3.40;;;;;;;12.45;100.00;100032.55;1776050;78;21223;-68
2021/05/07 04:17:46;;;;;;;4.77;3.20;;;;;;;12.41;100.00;100041.30;1797989;78;21418;-69
2021/05/07 04:20:15;;;;;;;5.20;2.97;;;;;;;12.41;100.00;100041.30;1790820;78;21969;-71
2021/05/07 04:22:43;;;;;;;11.83;4.37;;;;;;;12.43;100.00;100039.80;1788311;78;21565;-70
2021/05/07 04:25:11;;;;;;;6.80;3.73;;;;;;;12.60;100.00;100037.08;1781459;78;21364;-67
2021/05/07 04:27:39;;;;;;;5.13;3.37;;;;;;;12.71;100.00;100036.98;1794015;78;21471;-68
2021/05/07 04:30:10;;;;;;;6.87;3.30;;;;;;;12.83;100.00;100041.38;1749773;81;21655;-69
2021/05/07 04:32:38;;;;;;;6.78;4.20;;;;;;;12.83;100.00;100041.38;1788020;78;21592;-70
2021/05/07 04:35:09;;;;;;;11.37;4.00;;;;;;;12.98;100.00;100053.45;1774719;80;21578;-67
2021/05/07 04:37:37;;;;;;;8.87;3.97;;;;;;;12.98;100.00;100053.45;1784008;78;21547;-67
2021/05/07 04:40:07;;;;;;;5.20;3.87;;;;;;;13.05;100.00;100050.32;1773192;78;21544;-68
2021/05/07 04:42:35;;;;;;;5.33;4.13;;;;;;;13.28;100.00;100056.45;1786522;78;21802;-67
2021/05/07 04:45:06;;;;;;;7.70;4.70;;;;;;;13.28;100.00;100056.45;1775363;78;22203;-67
2021/05/07 04:47:35;;;;;;;6.70;4.72;;;;;;;13.37;100.00;100067.81;1782794;78;21470;-67
2021/05/07 04:50:06;;;;;;;9.07;5.10;;;;;;;13.42;100.00;100074.23;1778125;78;21021;-69
2021/05/07 04:52:36;;;;;;;6.95;5.03;;;;;;;13.38;100.00;100074.65;1787172;78;22456;-68
2021/05/07 04:55:06;;;;;;;6.63;5.13;;;;;;;13.33;100.00;100072.33;1797136;78;21347;-68
2021/05/07 04:57:35;;;;;;;8.23;5.30;;;;;;;13.27;100.00;100083.64;1788793;78;21512;-68
2021/05/07 05:00:05;;;;;;;6.57;5.33;;;;;;;13.27;100.00;100083.64;1787228;78;22367;-68
2021/05/07 05:02:34;;;;;;;9.57;6.13;;;;;;;13.26;100.00;100090.69;1786989;78;21785;-68
2021/05/07 05:05:04;;;;;;;7.53;5.93;;;;;;;13.32;100.00;100095.59;1783300;78;23092;-67
2021/05/07 05:07:34;;;;;;;10.00;6.00;;;;;;;13.32;100.00;100095.59;1805064;78;21500;-67
2021/05/07 05:10:05;;;;;;;8.13;6.17;;;;;;;13.39;100.00;100105.05;1790718;78;21795;-69
2021/05/07 05:12:40;;;;;;;7.40;5.80;;;;;;;13.49;100.00;100095.98;1820878;78;22537;-66
2021/05/07 05:15:10;;;;;;;7.33;5.73;;;;;;;13.49;100.00;100102.53;1790773;78;20947;-67
2021/05/07 05:17:38;;;;;;;7.70;5.63;;;;;;;13.46;100.00;100105.55;1791593;79;22214;-69
2021/05/07 05:20:08;;;;;;;8.53;6.70;;;;;;;13.39;100.00;100116.83;1794350;79;21788;-69
2021/05/07 05:22:37;;;;;;;9.80;6.63;;;;;;;13.31;100.00;100117.05;1768976;79;22090;-67
2021/05/07 05:25:06;;;;;;;8.23;6.23;;;;;;;13.26;100.00;100126.03;1798694;78;21721;-67
2021/05/07 05:27:35;;;;;;;9.47;7.13;;;;;;;13.22;100.00;100123.97;1791826;78;21706;-68
2021/05/07 05:30:06;;;;;;;9.43;8.40;;;;;;;13.12;100.00;100123.89;1770894;78;22221;-68
2021/05/07 05:32:36;;;;;;;12.63;8.80;;;;;;;13.03;100.00;100120.36;1737619;82;22404;-67
2021/05/07 05:35:05;;;;;;;11.77;7.90;;;;;;;12.99;100.00;100126.50;1723036;82;21755;-70
2021/05/07 05:37:33;;;;;;;9.77;8.00;;;;;;;12.98;100.00;100130.63;1735599;81;21936;-66
2021/05/07 05:40:02;;;;;;;9.63;8.63;;;;;;;12.98;100.00;100132.74;1747882;80;21952;-72
2021/05/07 05:42:32;;;;;;;9.83;8.73;;;;;;;12.98;100.00;100132.74;1746527;81;21714;-67
2021/05/07 05:45:01;;;;;;;10.67;8.93;;;;;;;13.03;100.00;100136.05;1720585;81;21780;-70
2021/05/07 05:47:30;;;;;;;10.40;8.60;;;;;;;13.06;100.00;100128.61;1723363;82;21656;-67
2021/05/07 05:49:58;;;;;;;9.87;7.70;;;;;;;13.12;100.00;100131.73;1724885;82;21853;-66
2021/05/07 05:52:26;;;;;;;13.07;8.43;;;;;;;13.24;100.00;100135.08;1727910;82;21817;-66
2021/05/07 05:54:55;;;;;;;9.83;8.83;;;;;;;13.37;100.00;100137.19;1722218;82;21953;-66
2021/05/07 05:57:23;;;;;;;12.80;8.90;;;;;;;13.53;100.00;100139.88;1715445;82;21743;-69
2021/05/07 05:59:51;;;;;;;12.90;9.53;;;;;;;13.73;100.00;100136.39;1711792;82;22216;-68
2021/05/07 06:02:20;;;;;;;12.27;8.53;;;;;;;14.00;100.00;100135.78;1725394;82;21795;-69
2021/05/07 06:04:49;;;;;;;11.97;8.10;;;;;;;14.81;100.00;100129.40;1730562;82;22188;-69
2021/05/07 06:07:17;;;;;;;8.00;7.20;;;;;;;14.81;100.00;100129.40;1724828;81;22304;-68
2021/05/07 06:09:46;;;;;;;10.20;8.50;;;;;;;15.24;100.00;100126.51;1717853;80;21195;-68
2021/05/07 06:12:14;;;;;;;10.60;7.47;;;;;;;15.70;100.00;100121.31;1729752;82;21034;-68
2021/05/07 06:14:43;;;;;;;8.20;6.20;;;;;;;16.32;100.00;100126.39;1776246;79;21136;-69
2021/05/07 06:17:13;;;;;;;11.23;7.20;;;;;;;17.09;100.00;100113.30;1790131;79;21944;-72
2021/05/07 06:19:41;;;;;;;7.67;6.87;;;;;;;17.56;100.00;100115.36;1787849;79;21343;-67
2021/05/07 06:22:10;;;;;;;10.03;7.27;;;;;;;17.74;100.00;100117.84;1777338;78;21160;-67
2021/05/07 06:24:38;;;;;;;9.63;7.53;;;;;;;17.78;100.00;100101.59;1786142;79;21172;-67
2021/05/07 06:27:06;;;;;;;5.57;4.87;;;;;;;17.77;100.00;100115.30;1778749;79;21157;-69
2021/05/07 06:29:35;;;;;;;6.63;2.80;;;;;;;17.75;100.00;100111.55;1792473;78;21114;-68
2021/05/07 06:32:03;;;;;;;3.03;1.80;;;;;;;17.35;100.00;100121.22;1790648;79;21448;-69
2021/05/07 06:34:31;;;;;;;3.37;1.90;;;;;;;16.72;100.00;100129.25;1783993;79;20994;-67
2021/05/07 06:36:59;;;;;;;2.83;1.67;;;;;;;16.15;100.00;100127.54;1779846;79;21139;-69
2021/05/07 06:39:31;;;;;;;11.07;2.00;;;;;;;15.63;100.00;100135.00;1786531;79;21427;-70
2021/05/07 06:41:59;;;;;;;2.40;1.45;;;;;;;15.15;100.00;100143.55;1787200;78;21467;-70
2021/05/07 06:44:28;;;;;;;2.30;1.40;;;;;;;14.73;100.00;100147.20;1782142;78;21188;-69
2021/05/07 06:46:56;;;;;;;2.13;1.07;;;;;;;14.35;100.00;100154.05;1782479;79;21141;-70
2021/05/07 06:49:25;;;;;;;2.90;1.10;;;;;;;14.08;100.00;100161.25;1786734;79;21129;-71
2021/05/07 06:51:52;;;;;;;2.47;0.93;;;;;;;13.85;100.00;100172.22;1781170;79;21418;-70
2021/05/07 06:54:26;;;;;;;1.67;0.90;;;;;;;13.82;100.00;100185.72;1785902;79;21201;-69
2021/05/07 06:56:51;;;;;;;2.67;1.07;;;;;;;14.02;100.00;100179.64;1771515;79;21212;-68
2021/05/07 06:59:20;;;;;;;3.77;1.20;;;;;;;14.37;100.00;100182.70;1794902;79;21421;-72
2021/05/07 07:01:48;;;;;;;4.53;1.30;;;;;;;14.99;100.00;100182.44;1772384;79;21495;-70
2021/05/07 07:04:17;;;;;;;1.73;0.83;;;;;;;15.76;100.00;100175.12;1785184;78;21160;-69
2021/05/07 07:06:45;;;;;;;1.40;0.60;;;;;;;16.52;100.00;100172.45;1786195;79;21235;-68
2021/05/07 07:09:15;;;;;;;1.43;0.80;;;;;;;17.19;100.00;100173.57;1795079;79;21244;-68
2021/05/07 07:11:45;;;;;;;3.85;0.70;;;;;;;17.97;100.00;100175.54;1779426;78;21262;-68
2021/05/07 07:14:13;;;;;;;1.70;0.70;;;;;;;18.76;100.00;100181.51;1778205;79;21639;-68
2021/05/07 07:16:43;;;;;;;3.10;0.70;;;;;;;19.48;100.00;100184.20;1767799;79;21154;-68
2021/05/07 07:19:12;;;;;;;2.03;0.70;;;;;;;20.38;90.77;100183.43;1792450;78;21140;-70
2021/05/07 07:21:41;;;;;;;1.77;0.70;;;;;;;21.22;71.71;100183.40;1770412;79;21202;-68
2021/05/07 07:24:10;;;;;;;2.10;0.50;;;;;;;21.94;57.16;100188.58;1786179;79;21280;-68
2021/05/07 07:26:39;;;;;;;1.57;0.80;;;;;;;22.26;49.21;100185.25;1777155;78;21201;-66
2021/05/07 07:29:07;;;;;;;1.80;0.80;;;;;;;22.45;44.69;100193.52;1790463;79;21165;-69
2021/05/07 07:31:35;;;;;;;1.60;0.80;;;;;;;22.56;44.09;100193.80;1785094;79;21184;-67
2021/05/07 07:34:07;;;;;;;3.60;0.90;;;;;;;22.69;43.43;100203.14;1792879;79;21226;-67
2021/05/07 07:36:35;;;;;;;4.10;0.70;;;;;;;22.84;42.53;100202.32;1727607;81;21586;-67
2021/05/07 07:39:04;;;;;;;2.00;1.07;;;;;;;23.04;42.85;100214.33;1716758;82;21241;-67
2021/05/07 07:41:33;;;;;;;4.08;1.17;;;;;;;23.26;42.21;100211.90;1782280;79;21185;-68
2021/05/07 07:44:01;;;;;;;1.43;0.77;;;;;;;23.73;40.85;100209.45;1767879;79;21746;-68
2021/05/07 07:46:30;;;;;;;2.23;0.80;;;;;;;24.17;37.43;100210.87;1775131;79;21195;-68
2021/05/07 07:48:59;;;;;;;4.93;1.27;;;;;;;24.24;37.36;100218.02;1771945;78;21508;-69
2021/05/07 07:51:30;;;;;;;4.40;0.93;;;;;;;24.21;37.80;100212.45;1760237;78;21317;-70
2021/05/07 07:53:58;;;;;;;4.35;1.07;;;;;;;24.23;37.22;100216.95;1783222;78;21122;-67
2021/05/07 07:56:27;;;;;;;0.90;0.70;;;;;;;24.16;38.27;100207.92;1781889;79;21117;-68
2021/05/07 07:58:55;;;;;;;2.60;0.90;;;;;;;24.10;37.56;100217.56;1768205;79;21361;-69
2021/05/07 08:01:23;;;;;;;1.73;0.80;;;;;;;23.93;38.41;100220.01;1784657;79;21936;-70
2021/05/07 08:03:52;;;;;;;2.03;0.90;;;;;;;23.84;37.85;100210.21;1725949;82;21069;-70
2021/05/07 08:06:20;;;;;;;1.83;0.80;;;;;;;23.48;39.25;100207.07;1753072;80;21594;-68
2021/05/07 08:08:49;;;;;;;2.40;0.70;;;;;;;23.49;37.89;100218.00;1748145;80;21577;-71
2021/05/07 08:11:17;;;;;;;2.73;1.17;;;;;;;23.22;37.28;100213.50;1762807;79;21338;-69
2021/05/07 08:13:46;;;;;;;1.23;0.60;;;;;;;22.95;38.34;100216.45;1774985;78;21010;-69
2021/05/07 08:16:13;;;;;;;1.60;0.70;;;;;;;22.54;38.88;100215.05;1777680;78;21571;-71
2021/05/07 08:18:42;;;;;;;2.50;0.73;;;;;;;22.09;40.21;100215.19;1790234;79;21542;-72
2021/05/07 08:21:10;;;;;;;1.63;0.80;;;;;;;22.01;41.29;100221.79;1783140;78;21004;-69
2021/05/07 08:23:39;;;;;;;1.80;0.63;;;;;;;22.14;40.95;100229.03;1768454;79;21509;-70
2021/05/07 08:26:07;;;;;;;2.93;0.80;;;;;;;21.93;41.08;100223.59;1782766;79;21122;-71
2021/05/07 08:28:35;;;;;;;1.60;0.80;;;;;;;21.85;41.56;100223.55;1777370;79;21128;-69
2021/05/07 08:31:04;;;;;;;2.27;0.93;;;;;;;21.86;41.29;100219.07;1784888;79;21593;-70
2021/05/07 08:33:33;;;;;;;2.00;0.73;;;;;;;22.25;40.82;100220.03;1766290;79;21211;-69
2021/05/07 08:36:02;;;;;;;1.77;0.90;;;;;;;22.67;40.42;100221.72;1784508;79;21195;-70
2021/05/07 08:38:30;;;;;;;2.47;0.87;;;;;;;23.16;39.84;100219.38;1768315;79;21187;-71
2021/05/07 08:41:03;;;;;;;1.53;0.87;;;;;;;23.17;38.95;100216.97;1775797;79;20996;-70
2021/05/07 08:43:31;;;;;;;1.87;0.87;;;;;;;22.93;38.57;100226.56;1762986;79;21203;-68
2021/05/07 08:46:06;;;;;;;2.40;0.80;;;;;;;22.97;38.00;100228.42;1770058;79;21569;-69
2021/05/07 08:48:35;;;;;;;1.20;0.60;;;;;;;23.15;38.10;100232.95;1726265;82;21211;-71
2021/05/07 08:51:05;;;;;;;1.50;0.73;;;;;;;23.57;37.64;100227.30;1707521;82;21999;-69
2021/05/07 08:53:33;;;;;;;1.87;0.80;;;;;;;23.60;37.70;100233.92;1713944;81;21948;-69
2021/05/07 08:56:07;;;;;;;2.43;0.53;;;;;;;23.45;37.09;100226.26;1754907;79;21105;-67
2021/05/07 08:58:36;;;;;;;1.10;0.50;;;;;;;23.13;36.85;100233.20;1773430;79;21082;-72
2021/05/07 09:01:04;;;;;;;8.40;1.20;;;;;;;22.84;36.69;100239.53;1723370;82;21205;-71
2021/05/07 09:03:46;;;;;;;3.43;0.60;;;;;;;22.88;38.22;100245.94;1788974;79;21052;-70
2021/05/07 09:06:20;;;;;;;1.20;0.60;;;;;;;23.27;37.42;100242.23;1774872;78;21125;-68
2021/05/07 09:08:50;;;;;;;1.47;0.70;;;;;;;23.63;36.28;100242.70;1780156;78;21113;-68
2021/05/07 09:11:19;;;;;;;3.50;0.80;;;;;;;23.70;36.38;100244.58;1773686;79;21181;-70
2021/05/07 09:13:48;;;;;;;1.37;0.60;;;;;;;23.73;34.67;100246.17;1791197;79;22706;-68
2021/05/07 09:16:15;;;;;;;1.40;0.60;;;;;;;23.45;35.37;100250.20;1788871;79;21108;-69
2021/05/07 09:18:51;;;;;;;1.63;0.73;;;;;;;23.05;36.09;100258.45;1783028;79;21079;-67
2021/05/07 09:21:20;;;;;;;2.27;0.80;;;;;;;22.80;37.81;100257.06;1792275;79;21176;-68
2021/05/07 09:23:51;;;;;;;3.33;0.97;;;;;;;22.75;36.62;100273.02;1794289;79;21121;-68
2021/05/07 09:26:20;;;;;;;1.33;0.60;;;;;;;22.81;36.08;100278.08;1794766;78;22224;-71
2021/05/07 09:28:52;;;;;;;1.87;0.70;;;;;;;23.18;36.41;100268.28;1792366;77;21708;-72
2021/05/07 09:31:21;;;;;;;1.40;0.60;;;;;;;23.97;35.13;100273.52;1786948;79;21946;-69
2021/05/07 09:33:49;;;;;;;2.63;0.90;;;;;;;24.40;33.35;100277.37;1797389;79;21156;-68
2021/05/07 09:36:29;;;;;;;1.97;0.87;;;;;;;24.69;33.30;100279.33;1761965;79;21131;-68
2021/05/07 09:38:57;;;;;;;3.63;1.13;;;;;;;24.81;32.71;100282.45;1730209;80;21375;-67
2021/05/07 09:41:29;;;;;;;2.12;0.75;;;;;;;24.76;30.82;100285.16;1727988;81;21148;-68
2021/05/07 09:43:57;;;;;;;2.23;1.13;;;;;;;24.70;30.41;100280.41;1702708;82;21156;-68
2021/05/07 09:46:33;;;;;;;2.20;0.70;;;;;;;24.44;29.66;100281.08;1734805;81;22508;-66
2021/05/07 09:49:01;;;;;;;2.23;1.00;;;;;;;24.33;30.30;100280.84;1788365;79;22305;-68
2021/05/07 09:51:42;;;;;;;1.30;0.70;;;;;;;24.58;29.93;100275.13;1746766;81;21674;-69
2021/05/07 09:54:11;;;;;;;3.37;0.70;;;;;;;25.05;29.69;100260.44;1794636;79;22064;-67
2021/05/07 09:56:40;;;;;;;2.00;0.70;;;;;;;25.63;29.71;100263.13;1788327;79;21190;-69
2021/05/07 09:59:11;;;;;;;2.63;0.83;;;;;;;25.98;28.26;100265.17;1787558;79;21186;-68
2021/05/07 10:01:39;;;;;;;2.53;0.97;;;;;;;25.89;29.28;100279.70;1784795;79;21155;-70
2021/05/07 10:04:08;;;;;;;2.37;1.00;;;;;;;25.57;29.51;100277.59;1773788;79;21224;-68
2021/05/07 10:06:36;;;;;;;1.17;0.70;;;;;;;25.31;28.98;100280.52;1790558;79;21124;-67
2021/05/07 10:09:09;;;;;;;4.30;1.20;;;;;;;24.93;28.99;100272.80;1782996;79;21579;-67
2021/05/07 10:11:43;;;;;;;2.00;1.00;;;;;;;24.78;29.55;100268.36;1782510;79;20928;-71
2021/05/07 10:14:13;;;;;;;1.33;0.70;;;;;;;24.99;29.08;100269.78;1792582;79;21830;-68
2021/05/07 10:16:42;;;;;;;2.40;0.73;;;;;;;25.33;29.00;100268.22;1798461;79;22266;-65
2021/05/07 10:19:12;;;;;;;4.03;1.07;;;;;;;25.82;28.49;100265.34;1794106;79;21560;-67
2021/05/07 10:21:45;;;;;;;4.40;1.30;;;;;;;26.27;27.84;100261.08;1784530;77;20950;-69
2021/05/07 10:24:17;;;;;;;2.47;0.83;;;;;;;26.57;27.19;100264.70;1794855;79;21486;-68
2021/05/07 10:26:50;;;;;;;1.63;0.80;;;;;;;26.63;26.53;100262.73;1745629;79;21601;-67
2021/05/07 10:29:23;;;;;;;3.17;1.00;;;;;;;26.72;26.36;100263.69;1791165;79;22700;-66
2021/05/07 10:31:53;;;;;;;0.97;0.70;;;;;;;26.69;26.16;100262.38;1785886;79;20990;-67
2021/05/07 10:34:23;;;;;;;3.25;0.90;;;;;;;26.35;26.41;100258.55;1781434;79;21109;-69
2021/05/07 10:36:55;;;;;;;;;;;;;;;25.98;27.10;100263.29;1787242;79;20982;-67
2021/05/07 10:39:28;;;;;;;1.07;0.70;;;;;;;25.85;26.45;100269.33;1795777;79;20317;-69
2021/05/07 10:41:59;;;;;;;1.17;0.60;;;;;;;25.64;26.81;100261.49;1794878;79;21244;-67
2021/05/07 10:44:29;;;;;;;1.87;1.00;;;;;;;25.43;26.64;100269.47;1779907;79;21105;-66
2021/05/07 10:47:06;;;;;;;2.47;0.67;;;;;;;25.06;27.46;100272.69;1763796;79;21175;-66
2021/05/07 10:49:40;;;;;;;2.70;0.90;;;;;;;25.08;28.11;100266.01;1796640;79;22324;-65
2021/05/07 10:52:09;;;;;;;3.23;1.00;;;;;;;25.53;27.68;100257.87;1800551;79;21140;-66
2021/05/07 10:54:46;;;;;;;1.70;0.90;;;;;;;26.16;27.03;100249.17;1793376;79;21445;-70
2021/05/07 10:57:23;;;;;;;1.63;0.70;;;;;;;26.68;26.42;100245.30;1790339;79;21228;-66
2021/05/07 10:59:56;;;;;;;1.90;0.87;;;;;;;26.97;26.04;100248.31;1791451;77;20973;-64
2021/05/07 11:02:24;;;;;;;1.77;0.83;;;;;;;27.04;25.40;100249.52;1786439;79;21140;-68
2021/05/07 11:04:53;;;;;;;4.80;0.87;;;;;;;26.61;25.02;100249.66;1790237;79;21120;-67
2021/05/07 11:07:30;;;;;;;2.17;0.90;;;;;;;25.89;26.17;100257.00;1793005;79;21365;-67
2021/05/07 11:10:09;;;;;;;1.73;0.80;;;;;;;25.54;26.25;100268.84;1789709;79;21141;-66
2021/05/07 11:12:43;;;;;;;0.80;0.57;;;;;;;25.11;26.73;100271.33;1740703;82;21109;-66
2021/05/07 11:15:16;;;;;;;1.00;0.70;;;;;;;24.62;27.06;100281.50;1776672;79;21116;-68
2021/05/07 11:17:44;;;;;;;1.00;0.63;;;;;;;24.24;27.76;100289.95;1776696;79;21164;-70
2021/05/07 11:20:13;;;;;;;1.43;0.80;;;;;;;24.12;27.94;100284.65;1788936;79;22067;-68
2021/05/07 11:22:42;;;;;;;2.87;1.00;;;;;;;24.09;27.58;100275.87;1786640;79;21121;-67
2021/05/07 11:25:11;;;;;;;2.40;0.80;;;;;;;24.06;27.78;100278.56;1790810;79;21145;-65
2021/05/07 11:27:40;;;;;;;3.73;0.73;;;;;;;24.22;27.44;100276.09;1730941;81;21223;-68
2021/05/07 11:30:13;;;;;;;1.17;0.70;;;;;;;24.39;27.87;100279.76;1780306;79;21598;-66
2021/05/07 11:32:41;;;;;;;1.80;0.73;;;;;;;24.66;27.58;100278.55;1785182;79;21361;-66
2021/05/07 11:35:11;;;;;;;1.40;0.80;;;;;;;24.86;26.91;100278.97;1734149;81;21590;-65
2021/05/07 11:37:41;;;;;;;;;;;;;;;24.94;26.74;100275.70;1784874;79;20935;-69
2021/05/07 11:40:14;;;;;;;2.50;0.87;;;;;;;24.93;26.73;100275.45;1776357;79;20207;-68
2021/05/07 11:42:47;;;;;;;2.47;0.87;;;;;;;24.90;26.74;100269.34;1786762;79;21232;-64
2021/05/07 11:45:24;;;;;;;1.80;0.80;;;;;;;24.99;26.91;100269.78;1774305;79;21432;-65
2021/05/07 11:47:53;;;;;;;1.37;0.57;;;;;;;25.22;27.13;100274.17;1779608;79;21549;-71
2021/05/07 11:50:22;;;;;;;3.10;0.80;;;;;;;25.38;26.08;100269.49;1774435;79;21209;-67
2021/05/07 11:52:50;;;;;;;1.73;0.80;;;;;;;25.46;25.54;100267.58;1784717;79;21203;-66
2021/05/07 11:55:25;;;;;;;;;;;;;;;25.55;25.51;100265.88;1778306;79;21528;-68
2021/05/07 11:58:06;;;;;;;3.47;1.03;;;;;;;25.59;25.35;100266.10;1784680;78;21195;-67
2021/05/07 12:00:38;;;;;;;2.33;0.53;;;;;;;25.55;25.67;100269.88;1787154;79;21160;-68
2021/05/07 12:03:15;;;;;;;2.33;0.90;;;;;;;25.54;25.84;100264.83;1773324;79;21210;-67
2021/05/07 12:05:45;;;;;;;2.77;1.00;;;;;;;25.59;25.92;100266.89;1787362;78;21144;-69
2021/05/07 12:08:27;;;;;;;3.77;0.80;;;;;;;25.67;25.87;100276.16;1768600;79;21196;-67
2021/05/07 12:10:55;;;;;;;2.20;0.80;;;;;;;25.70;25.62;100265.71;1781790;79;22273;-69
2021/05/07 12:13:24;;;;;;;1.87;0.80;;;;;;;25.71;25.18;100260.62;1772460;79;21030;-68
2021/05/07 12:15:53;;;;;;;2.67;1.00;;;;;;;25.68;25.38;100259.05;1767976;79;21176;-66
2021/05/07 12:18:23;;;;;;;3.20;1.03;;;;;;;25.64;25.69;100264.70;1774653;79;21588;-67
2021/05/07 12:20:56;;;;;;;1.50;0.80;;;;;;;25.57;25.86;100257.56;1786880;79;21001;-68
2021/05/07 12:23:25;;;;;;;1.60;0.90;;;;;;;25.49;25.93;100257.64;1781178;79;21374;-68
2021/05/07 12:25:53;;;;;;;3.00;0.70;;;;;;;25.26;25.85;100261.08;1731077;82;22668;-66
2021/05/07 12:28:22;;;;;;;2.47;0.83;;;;;;;24.89;25.69;100255.73;1740893;81;21069;-67
2021/05/07 12:30:51;;;;;;;2.47;1.13;;;;;;;24.59;25.94;100254.89;1734017;81;21062;-67
2021/05/07 12:33:21;;;;;;;1.17;0.90;;;;;;;24.43;25.81;100254.70;1774997;79;21508;-69
2021/05/07 12:35:56;;;;;;;1.92;0.70;;;;;;;24.32;25.62;100251.79;1774925;79;21235;-65
2021/05/07 12:38:36;;;;;;;2.77;0.77;;;;;;;24.23;26.02;100252.91;1777446;78;21101;-67
2021/05/07 12:41:15;;;;;;;1.43;0.80;;;;;;;24.21;25.95;100247.08;1779138;79;21168;-66
2021/05/07 12:43:46;;;;;;;1.00;0.60;;;;;;;24.18;26.19;100243.08;1781787;78;21156;-67
2021/05/07 12:46:14;;;;;;;2.70;0.90;;;;;;;24.03;26.06;100247.94;1779611;79;21179;-65
2021/05/07 12:48:48;;;;;;;2.03;0.70;;;;;;;23.82;26.37;100244.28;1769683;79;21194;-65
2021/05/07 12:51:18;;;;;;;1.50;0.70;;;;;;;23.75;26.81;100247.22;1777317;78;21567;-66
2021/05/07 12:53:46;;;;;;;2.57;0.70;;;;;;;23.74;26.93;100248.30;1731049;82;21207;-65
2021/05/07 12:56:15;;;;;;;2.00;0.93;;;;;;;23.91;26.82;100250.12;1775626;79;21138;-68
2021/05/07 12:58:45;;;;;;;2.60;0.80;;;;;;;24.26;26.56;100255.03;1765835;79;21490;-66
2021/05/07 13:01:13;;;;;;;2.53;0.70;;;;;;;24.59;25.93;100258.09;1775628;79;21224;-66
2021/05/07 13:03:41;;;;;;;3.67;1.60;;;;;;;24.71;25.18;100261.20;1776357;79;21153;-66
2021/05/07 13:06:10;;;;;;;1.30;0.80;;;;;;;24.83;25.51;100258.19;1775684;79;21138;-71
2021/05/07 13:08:41;;;;;;;3.47;0.88;;;;;;;25.00;24.75;100251.40;1783083;79;22370;-69
2021/05/07 13:11:09;;;;;;;1.93;0.70;;;;;;;25.03;24.84;100246.02;1783244;79;21118;-67
2021/05/07 13:13:39;;;;;;;2.10;0.80;;;;;;;24.97;25.21;100246.62;1788897;79;21599;-66
2021/05/07 13:16:12;;;;;;;3.10;0.70;;;;;;;24.97;25.23;100248.49;1780859;79;21129;-67
2021/05/07 13:18:42;;;;;;;2.10;0.87;;;;;;;24.92;25.28;100250.64;1777299;79;21510;-65
2021/05/07 13:21:10;;;;;;;1.73;0.90;;;;;;;24.97;25.53;100249.28;1778974;79;21343;-67
2021/05/07 13:23:39;;;;;;;1.67;0.80;;;;;;;25.10;24.97;100247.08;1781478;79;21417;-66
2021/05/07 13:26:07;;;;;;;1.63;0.80;;;;;;;25.11;24.46;100237.98;1783818;79;22019;-68
2021/05/07 13:28:36;;;;;;;1.77;0.70;;;;;;;25.02;25.07;100242.31;1790675;78;21153;-67
2021/05/07 13:31:04;;;;;;;2.50;1.07;;;;;;;24.90;24.86;100246.14;1790750;79;21698;-65
2021/05/07 13:33:33;;;;;;;1.80;0.80;;;;;;;24.83;25.12;100242.98;1729923;82;21009;-66
2021/05/07 13:36:02;;;;;;;1.67;0.90;;;;;;;24.80;25.34;100250.20;1784793;79;21142;-66
2021/05/07 13:38:30;;;;;;;2.87;0.73;;;;;;;24.62;25.04;100249.52;1769703;79;21135;-69
2021/05/07 13:40:58;;;;;;;1.67;0.73;;;;;;;24.30;25.10;100247.29;1780239;79;21184;-66
2021/05/07 13:43:26;;;;;;;2.33;0.73;;;;;;;23.81;25.91;100236.83;1783047;78;21958;-67
2021/05/07 13:45:54;;;;;;;1.40;0.70;;;;;;;23.61;26.08;100241.66;1773285;79;21143;-65
2021/05/07 13:48:23;;;;;;;1.53;0.70;;;;;;;23.53;26.25;100245.66;1775494;79;21415;-66
2021/05/07 13:50:51;;;;;;;1.80;0.60;;;;;;;23.46;26.22;100238.48;1769590;79;21838;-66
2021/05/07 13:53:19;;;;;;;2.67;0.70;;;;;;;23.38;25.67;100241.70;1785581;79;21620;-66
2021/05/07 13:55:47;;;;;;;2.30;1.00;;;;;;;23.11;26.05;100238.00;1772616;79;21354;-64
2021/05/07 13:58:16;;;;;;;3.27;0.97;;;;;;;22.75;26.53;100242.45;1779495;79;21873;-66
2021/05/07 14:00:44;;;;;;;1.37;0.60;;;;;;;22.50;26.81;100240.54;1729310;82;21105;-66
2021/05/07 14:03:12;;;;;;;1.53;0.60;;;;;;;22.39;27.09;100237.08;1779571;79;22484;-65
2021/05/07 14:05:42;;;;;;;4.30;1.40;;;;;;;22.33;27.36;100236.25;1785877;79;21484;-64
2021/05/07 14:08:10;;;;;;;1.10;0.67;;;;;;;22.34;27.34;100227.75;1786525;79;21123;-65
2021/05/07 14:10:38;;;;;;;2.03;0.90;;;;;;;22.34;27.70;100225.09;1781497;79;21058;-68
2021/05/07 14:13:07;;;;;;;3.83;0.80;;;;;;;22.36;27.61;100228.30;1778488;79;21199;-66
2021/05/07 14:15:37;;;;;;;1.43;0.70;;;;;;;22.40;27.86;100229.91;1776459;78;21249;-65
2021/05/07 14:18:06;;;;;;;1.30;0.60;;;;;;;22.44;27.47;100221.69;1774341;79;21129;-65
2021/05/07 14:20:34;;;;;;;2.30;0.80;;;;;;;22.45;27.54;100221.41;1774027;79;21176;-68
2021/05/07 14:23:06;;;;;;;1.50;0.60;;;;;;;22.27;27.41;100221.89;1782831;79;21180;-70
2021/05/07 14:25:35;;;;;;;1.23;0.60;;;;;;;21.92;27.83;100228.63;1787750;79;21164;-66
2021/05/07 14:28:07;;;;;;;2.13;0.80;;;;;;;21.57;28.07;100231.38;1777280;79;21555;-66